createdAt,value
2018-12-29T00:00:47.914Z,0.80
2018-12-29T00:03:16.960Z,0.90
2018-12-29T00:05:45.971Z,0.80
2018-12-29T00:08:14.899Z,0.90
2018-12-29T00:10:43.824Z,0.70
2018-12-29T00:13:12.895Z,0.70
2018-12-29T00:15:41.838Z,0.80
2018-12-29T00:18:11.804Z,0.80
2018-12-29T00:20:40.762Z,0.80
2018-12-29T00:23:10.003Z,0.80
2018-12-29T00:25:39.009Z,0.70
2018-12-29T00:28:08.058Z,0.70
2018-12-29T00:30:37.024Z,0.70
2018-12-29T00:33:06.076Z,0.60
2018-12-29T00:35:35.100Z,0.70
2018-12-29T00:38:04.047Z,0.60
2018-12-29T00:40:33.156Z,0.70
2018-12-29T00:43:02.052Z,0.60
2018-12-29T00:45:31.014Z,0.50
2018-12-29T00:48:00.156Z,0.60
2018-12-29T00:50:29.224Z,0.60
2018-12-29T00:52:58.282Z,0.70
2018-12-29T00:55:27.366Z,0.70
2018-12-29T00:57:56.395Z,0.60
2018-12-29T01:00:25.422Z,0.70
2018-12-29T01:02:54.461Z,0.80
2018-12-29T01:05:23.546Z,0.70
2018-12-29T01:07:52.576Z,0.70
2018-12-29T01:10:21.508Z,0.80
2018-12-29T01:12:50.599Z,0.90
2018-12-29T01:15:19.616Z,1.00
2018-12-29T01:17:48.584Z,1.00
2018-12-29T01:20:17.744Z,1.00
2018-12-29T01:22:46.767Z,0.90
2018-12-29T01:25:15.792Z,0.90
2018-12-29T01:27:44.912Z,0.90
2018-12-29T01:30:13.968Z,0.90
2018-12-29T01:32:43.117Z,1.00
2018-12-29T01:35:12.074Z,0.90
2018-12-29T01:37:41.036Z,0.80
2018-12-29T01:40:10.106Z,0.80
2018-12-29T01:42:39.201Z,0.80
2018-12-29T01:45:08.193Z,0.90
2018-12-29T01:47:37.260Z,0.90
2018-12-29T01:50:06.246Z,0.90
2018-12-29T01:52:35.296Z,1.00
2018-12-29T01:55:04.543Z,1.00
2018-12-29T01:57:33.604Z,1.00
2018-12-29T02:00:02.686Z,1.10
2018-12-29T02:02:31.693Z,1.10
2018-12-29T02:05:00.912Z,1.10
2018-12-29T02:07:29.980Z,1.00
2018-12-29T02:09:58.943Z,1.00
2018-12-29T02:12:27.992Z,1.00
2018-12-29T02:14:57.033Z,1.00
2018-12-29T02:17:26.037Z,1.10
2018-12-29T02:19:55.189Z,1.10
2018-12-29T02:22:24.252Z,1.10
2018-12-29T02:24:53.235Z,1.10
2018-12-29T02:27:22.241Z,1.10
2018-12-29T02:29:51.284Z,1.10
2018-12-29T02:32:20.417Z,1.10
2018-12-29T02:34:49.381Z,0.90
2018-12-29T02:37:18.467Z,0.80
2018-12-29T02:39:47.540Z,0.80
2018-12-29T02:42:16.479Z,0.60
2018-12-29T02:44:45.461Z,0.70
2018-12-29T02:47:15.628Z,0.80
2018-12-29T02:49:44.614Z,0.80
2018-12-29T02:52:13.653Z,0.90
2018-12-29T02:54:42.623Z,0.80
2018-12-29T02:57:11.672Z,0.90
2018-12-29T02:59:40.689Z,1.00
2018-12-29T03:02:09.569Z,1.00
2018-12-29T03:04:38.536Z,1.00
2018-12-29T03:07:07.672Z,1.00
2018-12-29T03:09:36.776Z,0.90
2018-12-29T03:12:05.769Z,0.90
2018-12-29T03:14:34.922Z,1.00
2018-12-29T03:17:04.386Z,1.10
2018-12-29T03:19:34.513Z,0.90
2018-12-29T03:22:09.741Z,0.90
2018-12-29T03:24:38.737Z,1.00
2018-12-29T03:27:08.096Z,1.10
2018-12-29T03:29:37.116Z,1.00
2018-12-29T03:32:06.149Z,1.00
2018-12-29T03:34:37.655Z,1.00
2018-12-29T03:37:08.504Z,0.90
2018-12-29T03:39:37.590Z,0.80
2018-12-29T03:42:08.132Z,0.80
2018-12-29T03:44:45.141Z,0.80
2018-12-29T03:47:14.240Z,0.70
2018-12-29T03:49:43.297Z,0.70
2018-12-29T03:52:12.918Z,0.60
2018-12-29T03:54:41.988Z,0.60
2018-12-29T03:57:11.257Z,0.60
2018-12-29T03:59:47.885Z,0.50
2018-12-29T04:02:19.524Z,0.60
2018-12-29T04:04:50.847Z,0.60
2018-12-29T04:07:19.477Z,0.60
2018-12-29T04:09:49.406Z,0.60
2018-12-29T04:12:21.218Z,0.50
2018-12-29T04:14:50.428Z,0.50
2018-12-29T04:17:19.476Z,0.60
2018-12-29T04:19:51.950Z,0.50
2018-12-29T04:22:26.709Z,0.50
2018-12-29T04:24:58.544Z,0.50
2018-12-29T04:27:27.631Z,0.60
2018-12-29T04:29:57.842Z,0.50
2018-12-29T04:32:26.835Z,0.50
2018-12-29T04:34:58.458Z,0.50
2018-12-29T04:37:30.435Z,0.50
2018-12-29T04:40:03.128Z,0.40
2018-12-29T04:42:32.196Z,0.50
2018-12-29T04:45:01.346Z,0.40
2018-12-29T04:47:30.441Z,0.40
2018-12-29T04:49:59.694Z,0.40
2018-12-29T04:52:34.460Z,0.40
2018-12-29T04:55:03.564Z,0.30
2018-12-29T04:57:35.144Z,0.20
2018-12-29T05:00:04.794Z,0.20
2018-12-29T05:02:36.735Z,0.20
2018-12-29T05:05:10.578Z,0.10
2018-12-29T05:07:39.952Z,0.10
2018-12-29T05:10:09.031Z,0.10
2018-12-29T05:12:38.558Z,0.10
2018-12-29T05:15:07.761Z,0.00
2018-12-29T05:17:37.211Z,0.10
2018-12-29T05:20:09.285Z,0.10
2018-12-29T05:22:38.463Z,0.10
2018-12-29T05:25:07.620Z,0.10
2018-12-29T05:27:36.699Z,0.00
2018-12-29T05:30:06.378Z,0.00
2018-12-29T05:32:35.423Z,-0.10
2018-12-29T05:35:04.444Z,-0.10
2018-12-29T05:37:33.324Z,0.00
2018-12-29T05:40:02.364Z,-0.10
2018-12-29T05:42:31.317Z,-0.20
2018-12-29T05:45:00.269Z,-0.10
2018-12-29T05:47:29.300Z,-0.10
2018-12-29T05:49:58.223Z,-0.10
2018-12-29T05:52:27.263Z,-0.10
2018-12-29T05:54:56.258Z,-0.10
2018-12-29T05:57:26.335Z,-0.20
2018-12-29T05:59:55.434Z,-0.20
2018-12-29T06:02:24.477Z,-0.20
2018-12-29T06:04:53.620Z,-0.10
2018-12-29T06:07:22.530Z,0.00
2018-12-29T06:09:51.597Z,0.00
2018-12-29T06:12:20.568Z,0.00
2018-12-29T06:14:49.575Z,-0.10
2018-12-29T06:17:18.543Z,0.00
2018-12-29T06:19:47.514Z,0.10
2018-12-29T06:22:16.548Z,0.00
2018-12-29T06:24:45.693Z,0.00
2018-12-29T06:27:14.742Z,0.10
2018-12-29T06:29:43.833Z,0.10
2018-12-29T06:32:12.825Z,0.10
2018-12-29T06:34:41.838Z,0.00
2018-12-29T06:37:11.008Z,0.10
2018-12-29T06:39:39.965Z,0.10
2018-12-29T06:42:08.977Z,0.20
2018-12-29T06:44:38.048Z,0.20
2018-12-29T06:47:07.000Z,0.20
2018-12-29T06:49:35.972Z,0.30
2018-12-29T06:52:05.106Z,0.30
2018-12-29T06:54:34.189Z,0.20
2018-12-29T06:57:03.260Z,0.20
2018-12-29T06:59:32.233Z,0.10
2018-12-29T07:02:01.389Z,0.20
2018-12-29T07:04:30.612Z,0.20
2018-12-29T07:06:59.674Z,0.20
2018-12-29T07:09:28.612Z,0.20
2018-12-29T07:11:57.617Z,0.30
2018-12-29T07:14:26.789Z,0.20
2018-12-29T07:16:55.988Z,0.40
2018-12-29T07:19:25.163Z,0.40
2018-12-29T07:21:54.209Z,0.10
2018-12-29T07:24:23.374Z,0.20
2018-12-29T07:26:52.746Z,0.40
2018-12-29T07:29:21.774Z,0.50
2018-12-29T07:31:50.760Z,0.50
2018-12-29T07:34:19.729Z,0.50
2018-12-29T07:36:48.833Z,0.50
2018-12-29T07:39:17.855Z,0.30
2018-12-29T07:41:47.093Z,0.40
2018-12-29T07:44:16.190Z,0.40
2018-12-29T07:46:49.595Z,0.40
2018-12-29T07:49:16.014Z,0.50
2018-12-29T07:51:44.961Z,0.60
2018-12-29T07:54:14.094Z,0.60
2018-12-29T07:56:43.075Z,0.50
2018-12-29T07:59:12.004Z,0.60
2018-12-29T08:01:40.909Z,0.60
2018-12-29T08:04:10.056Z,0.60
2018-12-29T08:06:39.109Z,0.70
2018-12-29T08:09:09.834Z,0.80
2018-12-29T08:11:38.824Z,0.80
2018-12-29T08:14:07.832Z,0.70
2018-12-29T08:16:36.834Z,0.50
2018-12-29T08:19:05.792Z,0.50
2018-12-29T08:21:34.819Z,0.60
2018-12-29T08:24:04.023Z,0.60
2018-12-29T08:26:33.084Z,0.60
2018-12-29T08:29:02.331Z,0.70
2018-12-29T08:31:31.322Z,0.70
2018-12-29T08:34:00.302Z,0.70
2018-12-29T08:36:29.411Z,0.80
2018-12-29T08:38:58.378Z,0.90
2018-12-29T08:41:27.374Z,0.90
2018-12-29T08:43:56.529Z,0.90
2018-12-29T08:46:25.597Z,0.90
2018-12-29T08:48:54.693Z,0.90
2018-12-29T08:51:23.689Z,0.80
2018-12-29T08:53:52.701Z,1.00
2018-12-29T08:56:22.076Z,1.10
2018-12-29T08:58:51.022Z,1.10
2018-12-29T09:01:20.149Z,1.20
2018-12-29T09:03:49.112Z,1.20
2018-12-29T09:06:18.213Z,1.20
2018-12-29T09:08:47.261Z,1.30
2018-12-29T09:11:16.454Z,1.20
2018-12-29T09:13:45.485Z,1.20
2018-12-29T09:16:15.571Z,1.20
2018-12-29T09:18:49.682Z,1.10
2018-12-29T09:21:15.462Z,1.40
2018-12-29T09:23:44.584Z,1.20
2018-12-29T09:26:13.400Z,1.50
2018-12-29T09:28:42.378Z,1.80
2018-12-29T09:31:13.104Z,1.90
2018-12-29T09:33:42.005Z,1.90
2018-12-29T09:36:11.040Z,1.80
2018-12-29T09:38:40.070Z,2.10
2018-12-29T09:41:09.113Z,2.20
2018-12-29T09:43:38.077Z,2.40
2018-12-29T09:46:07.003Z,2.30
2018-12-29T09:48:37.167Z,2.10
2018-12-29T09:51:06.149Z,2.20
2018-12-29T09:53:35.296Z,2.40
2018-12-29T09:56:04.363Z,2.50
2018-12-29T09:58:33.336Z,2.50
2018-12-29T10:01:02.400Z,2.60
2018-12-29T10:03:31.396Z,2.80
2018-12-29T10:06:00.369Z,2.50
2018-12-29T10:08:29.416Z,2.30
2018-12-29T10:10:58.384Z,2.30
2018-12-29T10:13:27.335Z,2.30
2018-12-29T10:15:56.372Z,2.30
2018-12-29T10:18:25.432Z,2.20
2018-12-29T10:20:54.544Z,2.00
2018-12-29T10:23:23.576Z,2.10
2018-12-29T10:25:52.649Z,2.00
2018-12-29T10:28:21.758Z,2.20
2018-12-29T10:30:50.802Z,2.20
2018-12-29T10:33:19.794Z,2.00
2018-12-29T10:35:48.889Z,1.80
2018-12-29T10:38:17.932Z,1.70
2018-12-29T10:40:47.056Z,1.70
2018-12-29T10:43:16.285Z,1.80
2018-12-29T10:45:45.416Z,1.80
2018-12-29T10:48:14.572Z,1.80
2018-12-29T10:50:43.593Z,1.70
2018-12-29T10:53:12.609Z,1.70
2018-12-29T10:55:41.598Z,1.80
2018-12-29T10:58:10.752Z,1.80
2018-12-29T11:00:39.728Z,1.80
2018-12-29T11:03:08.696Z,1.90
2018-12-29T11:05:37.798Z,1.90
2018-12-29T11:08:06.804Z,2.20
2018-12-29T11:10:35.845Z,2.00
2018-12-29T11:13:05.025Z,1.60
2018-12-29T11:15:34.081Z,1.50
2018-12-29T11:18:03.168Z,1.50
2018-12-29T11:20:32.192Z,1.70
2018-12-29T11:23:01.264Z,2.10
2018-12-29T11:25:30.190Z,2.20
2018-12-29T11:27:59.476Z,2.10
2018-12-29T11:30:28.737Z,2.00
2018-12-29T11:32:57.729Z,2.40
2018-12-29T11:35:28.974Z,2.40
2018-12-29T11:37:57.606Z,2.30
2018-12-29T11:40:26.496Z,2.30
2018-12-29T11:42:55.697Z,2.70
2018-12-29T11:45:24.654Z,2.60
2018-12-29T11:47:53.747Z,2.50
2018-12-29T11:50:22.788Z,2.30
2018-12-29T11:52:51.810Z,2.40
2018-12-29T11:55:20.867Z,2.40
2018-12-29T11:57:49.878Z,2.40
2018-12-29T12:00:18.824Z,2.60
2018-12-29T12:02:47.690Z,2.70
2018-12-29T12:05:16.756Z,2.80
2018-12-29T12:07:46.755Z,2.80
2018-12-29T12:10:15.942Z,2.80
2018-12-29T12:12:44.976Z,2.70
2018-12-29T12:15:14.024Z,2.70
2018-12-29T12:17:43.099Z,2.40
2018-12-29T12:20:13.199Z,2.30
2018-12-29T12:22:42.666Z,2.50
2018-12-29T12:25:11.632Z,2.70
2018-12-29T12:27:40.916Z,2.80
2018-12-29T12:30:09.913Z,2.80
2018-12-29T12:32:38.827Z,3.00
2018-12-29T12:35:08.207Z,2.70
2018-12-29T12:37:37.260Z,2.70
2018-12-29T12:40:06.521Z,2.80
2018-12-29T12:42:35.613Z,3.20
2018-12-29T12:45:04.904Z,2.80
2018-12-29T12:47:33.943Z,2.80
2018-12-29T12:50:03.124Z,2.90
2018-12-29T12:52:32.413Z,3.20
2018-12-29T12:55:01.400Z,3.00
2018-12-29T12:57:30.444Z,2.90
2018-12-29T12:59:59.750Z,2.90
2018-12-29T13:02:29.651Z,3.00
2018-12-29T13:04:58.609Z,3.20
2018-12-29T13:07:27.539Z,3.20
2018-12-29T13:09:56.516Z,3.20
2018-12-29T13:12:25.456Z,3.40
2018-12-29T13:14:54.525Z,3.40
2018-12-29T13:17:23.673Z,3.40
2018-12-29T13:19:52.557Z,3.40
2018-12-29T13:22:21.636Z,3.40
2018-12-29T13:24:50.734Z,3.40
2018-12-29T13:27:19.699Z,3.40
2018-12-29T13:29:48.810Z,3.40
2018-12-29T13:32:17.970Z,3.50
2018-12-29T13:34:47.056Z,3.60
2018-12-29T13:37:16.060Z,3.80
2018-12-29T13:39:45.034Z,3.90
2018-12-29T13:42:13.953Z,3.90
2018-12-29T13:44:43.060Z,3.90
2018-12-29T13:47:12.156Z,3.80
2018-12-29T13:49:41.577Z,3.80
2018-12-29T13:52:10.549Z,3.80
2018-12-29T13:54:39.584Z,3.80
2018-12-29T13:57:08.492Z,4.00
2018-12-29T13:59:37.348Z,3.90
2018-12-29T14:02:06.812Z,4.10
2018-12-29T14:04:35.866Z,4.10
2018-12-29T14:07:04.931Z,4.10
2018-12-29T14:09:34.020Z,4.10
2018-12-29T14:12:03.056Z,4.00
2018-12-29T14:14:32.062Z,4.00
2018-12-29T14:17:01.399Z,4.10
2018-12-29T14:19:30.510Z,3.90
2018-12-29T14:21:59.420Z,3.60
2018-12-29T14:24:29.120Z,3.60
2018-12-29T14:26:58.234Z,3.60
2018-12-29T14:29:27.297Z,3.80
2018-12-29T14:31:56.411Z,3.80
2018-12-29T14:34:25.464Z,3.70
2018-12-29T14:36:54.941Z,3.80
2018-12-29T14:39:24.051Z,3.80
2018-12-29T14:41:53.033Z,3.90
2018-12-29T14:44:22.241Z,4.00
2018-12-29T14:46:51.236Z,3.90
2018-12-29T14:49:20.388Z,3.90
2018-12-29T14:51:49.486Z,3.80
2018-12-29T14:54:18.465Z,3.90
2018-12-29T14:56:47.553Z,3.90
2018-12-29T14:59:16.575Z,3.90
2018-12-29T15:01:45.545Z,4.00
2018-12-29T15:04:14.808Z,4.10
2018-12-29T15:06:43.789Z,4.10
2018-12-29T15:09:12.916Z,4.20
2018-12-29T15:11:41.893Z,4.30
2018-12-29T15:14:10.976Z,4.20
2018-12-29T15:16:40.332Z,4.20
2018-12-29T15:19:09.316Z,4.10
2018-12-29T15:21:38.569Z,4.20
2018-12-29T15:24:08.964Z,4.30
2018-12-29T15:26:38.478Z,4.30
2018-12-29T15:29:08.041Z,4.30
2018-12-29T15:31:37.108Z,4.30
2018-12-29T15:34:06.066Z,4.30
2018-12-29T15:36:35.548Z,4.30
2018-12-29T15:39:06.301Z,4.30
2018-12-29T15:41:35.414Z,4.30
2018-12-29T15:44:04.943Z,4.30
2018-12-29T15:46:33.984Z,4.40
2018-12-29T15:49:03.103Z,4.40
2018-12-29T15:51:32.121Z,4.40
2018-12-29T15:54:01.172Z,4.30
2018-12-29T15:56:30.737Z,4.40
2018-12-29T15:58:59.818Z,4.30
2018-12-29T16:01:28.858Z,4.30
2018-12-29T16:03:57.881Z,4.40
2018-12-29T16:06:27.041Z,4.40
2018-12-29T16:08:56.277Z,4.40
2018-12-29T16:11:26.156Z,4.40
2018-12-29T16:13:56.436Z,4.30
2018-12-29T16:16:25.471Z,4.30
2018-12-29T16:18:58.854Z,4.20
2018-12-29T16:21:25.551Z,4.30
2018-12-29T16:23:54.600Z,4.40
2018-12-29T16:26:23.745Z,4.30
2018-12-29T16:28:52.850Z,4.30
2018-12-29T16:31:21.769Z,4.30
2018-12-29T16:33:53.999Z,4.30
2018-12-29T16:36:21.581Z,4.20
2018-12-29T16:38:50.566Z,4.10
2018-12-29T16:41:19.605Z,4.10
2018-12-29T16:43:48.940Z,4.10
2018-12-29T16:46:18.033Z,4.10
2018-12-29T16:48:47.205Z,4.10
2018-12-29T16:51:16.260Z,4.00
2018-12-29T16:53:45.556Z,3.90
2018-12-29T16:56:14.570Z,3.90
2018-12-29T16:58:43.636Z,3.90
2018-12-29T17:01:31.926Z,3.70
2018-12-29T17:04:00.939Z,3.50
2018-12-29T17:06:30.600Z,3.30
2018-12-29T17:08:59.577Z,3.40
2018-12-29T17:11:28.724Z,3.60
2018-12-29T17:13:57.777Z,3.50
2018-12-29T17:16:26.841Z,3.40
2018-12-29T17:18:55.994Z,3.50
2018-12-29T17:21:25.137Z,3.40
2018-12-29T17:23:54.155Z,3.30
2018-12-29T17:26:23.256Z,3.40
2018-12-29T17:28:52.320Z,3.40
2018-12-29T17:31:21.836Z,3.40
2018-12-29T17:33:50.804Z,3.40
2018-12-29T17:36:19.832Z,3.40
2018-12-29T17:38:48.913Z,3.50
2018-12-29T17:41:18.037Z,3.60
2018-12-29T17:43:47.473Z,3.60
2018-12-29T17:46:16.824Z,3.50
2018-12-29T17:48:46.430Z,3.60
2018-12-29T17:51:15.352Z,3.60
2018-12-29T17:53:48.223Z,3.50
2018-12-29T17:56:15.274Z,3.50
2018-12-29T17:58:44.157Z,3.50
2018-12-29T18:01:13.348Z,3.50
2018-12-29T18:03:42.339Z,3.50
2018-12-29T18:06:11.462Z,3.50
2018-12-29T18:08:41.792Z,3.60
2018-12-29T18:11:10.992Z,3.60
2018-12-29T18:13:40.062Z,3.40
2018-12-29T18:16:09.188Z,3.50
2018-12-29T18:18:39.423Z,3.60
2018-12-29T18:21:08.645Z,3.60
2018-12-29T18:23:38.084Z,3.60
2018-12-29T18:26:07.162Z,3.60
2018-12-29T18:28:36.240Z,3.60
2018-12-29T18:31:05.436Z,3.60
2018-12-29T18:33:37.362Z,3.50
2018-12-29T18:36:05.289Z,3.50
2018-12-29T18:38:34.409Z,3.70
2018-12-29T18:41:03.659Z,3.80
2018-12-29T18:43:32.761Z,3.80
2018-12-29T18:46:01.908Z,3.70
2018-12-29T18:48:30.954Z,3.80
2018-12-29T18:50:59.912Z,3.80
2018-12-29T18:53:28.948Z,3.90
2018-12-29T18:55:58.000Z,3.80
2018-12-29T18:58:27.070Z,3.80
2018-12-29T19:00:56.377Z,3.90
2018-12-29T19:03:25.396Z,3.90
2018-12-29T19:05:54.877Z,3.90
2018-12-29T19:08:24.133Z,3.80
2018-12-29T19:10:53.375Z,3.90
2018-12-29T19:13:23.129Z,3.90
2018-12-29T19:15:52.561Z,4.00
2018-12-29T19:18:21.576Z,4.00
2018-12-29T19:20:51.617Z,4.00
2018-12-29T19:23:21.451Z,3.90
2018-12-29T19:25:50.975Z,4.00
2018-12-29T19:28:20.330Z,4.00
2018-12-29T19:30:49.437Z,4.00
2018-12-29T19:33:18.796Z,4.00
2018-12-29T19:35:48.234Z,4.00
2018-12-29T19:38:17.868Z,4.00
2018-12-29T19:40:47.305Z,4.00
2018-12-29T19:43:16.844Z,4.00
2018-12-29T19:45:45.860Z,4.10
2018-12-29T19:48:14.816Z,4.10
2018-12-29T19:50:43.814Z,4.10
2018-12-29T19:53:13.329Z,4.10
2018-12-29T19:55:42.490Z,4.00
2018-12-29T19:58:11.728Z,4.10
2018-12-29T20:00:40.823Z,4.10
2018-12-29T20:03:11.263Z,4.00
2018-12-29T20:05:40.775Z,4.00
2018-12-29T20:08:09.841Z,4.00
2018-12-29T20:10:38.979Z,4.00
2018-12-29T20:13:08.361Z,3.90
2018-12-29T20:15:37.622Z,3.80
2018-12-29T20:18:07.046Z,3.80
2018-12-29T20:20:37.342Z,3.70
2018-12-29T20:23:06.358Z,3.70
2018-12-29T20:25:35.490Z,3.70
2018-12-29T20:28:04.659Z,3.70
2018-12-29T20:30:33.838Z,3.60
2018-12-29T20:33:04.009Z,3.60
2018-12-29T20:35:32.990Z,3.50
2018-12-29T20:38:02.154Z,3.50
2018-12-29T20:40:31.211Z,3.50
2018-12-29T20:43:00.397Z,3.30
2018-12-29T20:45:29.529Z,3.30
2018-12-29T20:47:58.508Z,3.30
2018-12-29T20:50:27.960Z,3.30
2018-12-29T20:52:57.118Z,3.40
2018-12-29T20:55:26.072Z,3.20
2018-12-29T20:57:55.455Z,3.30
2018-12-29T21:00:24.585Z,3.50
2018-12-29T21:02:54.028Z,3.50
2018-12-29T21:05:23.041Z,3.50
2018-12-29T21:07:52.215Z,3.50
2018-12-29T21:10:21.199Z,3.50
2018-12-29T21:12:50.114Z,3.30
2018-12-29T21:15:19.205Z,3.30
2018-12-29T21:17:48.330Z,3.30
2018-12-29T21:20:18.653Z,3.20
2018-12-29T21:22:47.917Z,3.20
2018-12-29T21:25:17.043Z,3.20
2018-12-29T21:27:47.367Z,3.20
2018-12-29T21:30:16.427Z,3.30
2018-12-29T21:32:45.583Z,3.30
2018-12-29T21:35:14.748Z,3.30
2018-12-29T21:37:43.962Z,3.30
2018-12-29T21:40:13.134Z,3.30
2018-12-29T21:42:42.648Z,3.30
2018-12-29T21:45:12.826Z,3.20
2018-12-29T21:47:41.941Z,3.30
2018-12-29T21:50:10.930Z,3.40
2018-12-29T21:52:40.057Z,3.30
2018-12-29T21:55:09.419Z,3.30
2018-12-29T21:57:38.517Z,3.30
2018-12-29T22:00:08.501Z,3.30
2018-12-29T22:02:37.643Z,3.30
2018-12-29T22:05:06.833Z,3.30
2018-12-29T22:07:35.845Z,3.30
2018-12-29T22:10:06.316Z,3.20
2018-12-29T22:12:35.436Z,3.30
2018-12-29T22:15:08.353Z,3.30
2018-12-29T22:17:37.560Z,3.20
2018-12-29T22:20:06.921Z,3.20
2018-12-29T22:22:36.045Z,3.30
2018-12-29T22:25:05.236Z,3.20
2018-12-29T22:27:34.246Z,3.30
2018-12-29T22:30:03.267Z,3.30
2018-12-29T22:32:32.455Z,3.40
2018-12-29T22:35:01.480Z,3.40
2018-12-29T22:37:30.576Z,3.50
2018-12-29T22:39:59.793Z,3.60
2018-12-29T22:42:28.966Z,3.50
2018-12-29T22:44:58.004Z,3.60
2018-12-29T22:47:27.193Z,3.70
2018-12-29T22:49:56.576Z,3.80
2018-12-29T22:52:25.483Z,3.80
2018-12-29T22:54:54.632Z,3.90
2018-12-29T22:57:23.537Z,4.10
2018-12-29T22:59:53.100Z,4.10
2018-12-29T23:02:22.190Z,4.30
2018-12-29T23:04:51.190Z,4.30
2018-12-29T23:07:20.609Z,4.40
2018-12-29T23:09:50.021Z,4.30
2018-12-29T23:12:19.132Z,4.30
2018-12-29T23:14:48.177Z,4.40
2018-12-29T23:17:17.309Z,4.50
2018-12-29T23:19:46.412Z,4.60
2018-12-29T23:22:15.323Z,4.60
2018-12-29T23:24:44.252Z,4.60
2018-12-29T23:27:13.315Z,4.70
2018-12-29T23:29:42.405Z,4.70
2018-12-29T23:32:11.554Z,4.80
2018-12-29T23:34:41.067Z,4.90
2018-12-29T23:37:11.218Z,5.00
2018-12-29T23:39:40.251Z,5.00
2018-12-29T23:42:09.361Z,4.90
2018-12-29T23:44:38.476Z,4.90
2018-12-29T23:47:07.488Z,4.90
2018-12-29T23:49:36.520Z,4.90
2018-12-29T23:52:05.929Z,4.80
2018-12-29T23:54:34.888Z,4.70
2018-12-29T23:57:03.935Z,4.50
2018-12-29T23:59:33.115Z,4.30
